createdAt,value
2022-11-12T00:03:06.150Z,78.60
2022-11-12T00:06:30.435Z,78.55
2022-11-12T00:09:52.011Z,78.52
2022-11-12T00:13:16.478Z,80.11
2022-11-12T00:16:38.012Z,80.40
2022-11-12T00:20:02.299Z,80.37
2022-11-12T00:23:23.838Z,80.05
2022-11-12T00:26:45.373Z,80.02
2022-11-12T00:30:09.887Z,80.76
2022-11-12T00:33:33.806Z,81.29
2022-11-12T00:36:55.343Z,81.55
2022-11-12T00:40:16.939Z,82.18
2022-11-12T00:43:38.510Z,81.78
2022-11-12T00:47:02.517Z,81.11
2022-11-12T00:50:24.739Z,80.52
2022-11-12T00:53:51.732Z,80.60
2022-11-12T00:57:13.360Z,79.69
2022-11-12T01:00:34.876Z,79.93
2022-11-12T01:04:00.994Z,79.96
2022-11-12T01:07:25.062Z,80.45
2022-11-12T01:10:46.628Z,80.39
2022-11-12T01:14:09.580Z,79.66
2022-11-12T01:17:32.077Z,80.90
2022-11-12T01:20:53.635Z,81.24
2022-11-12T01:24:15.180Z,81.18
2022-11-12T01:27:36.726Z,80.92
2022-11-12T01:30:58.526Z,81.10
2022-11-12T01:34:22.743Z,81.60
2022-11-12T01:37:44.266Z,81.29
2022-11-12T01:41:07.922Z,82.21
2022-11-12T01:44:38.195Z,82.28
2022-11-12T01:47:59.753Z,82.09
2022-11-12T01:51:27.554Z,81.15
2022-11-12T01:54:52.007Z,80.83
2022-11-12T01:58:22.371Z,79.94
2022-11-12T02:01:43.866Z,80.09
2022-11-12T02:05:11.671Z,80.68
2022-11-12T02:08:33.845Z,80.93
2022-11-12T02:11:55.411Z,81.17
2022-11-12T02:15:17.042Z,81.05
2022-11-12T02:18:38.590Z,80.75
2022-11-12T02:22:00.103Z,81.68
2022-11-12T02:25:24.667Z,80.88
2022-11-12T02:28:48.634Z,80.74
2022-11-12T02:32:10.170Z,80.31
2022-11-12T02:35:34.159Z,81.34
2022-11-12T02:38:57.125Z,81.23
2022-11-12T02:42:18.666Z,81.53
2022-11-12T02:45:40.205Z,82.26
2022-11-12T02:49:01.710Z,82.44
2022-11-12T02:52:23.390Z,82.04
2022-11-12T02:55:44.899Z,82.74
2022-11-12T02:59:09.628Z,81.53
2022-11-12T03:02:31.159Z,81.58
2022-11-12T03:05:57.742Z,82.38
2022-11-12T03:09:21.582Z,82.91
2022-11-12T03:12:43.124Z,82.95
2022-11-12T03:16:04.910Z,82.27
2022-11-12T03:19:29.174Z,80.87
2022-11-12T03:23:00.817Z,82.27
2022-11-12T03:26:29.499Z,82.29
2022-11-12T03:29:53.247Z,82.02
2022-11-12T03:33:15.787Z,82.51
2022-11-12T03:36:37.320Z,82.42
2022-11-12T03:40:04.070Z,82.67
2022-11-12T03:43:25.618Z,82.31
2022-11-12T03:46:50.173Z,82.36
2022-11-12T03:50:18.095Z,82.29
2022-11-12T03:53:39.678Z,82.22
2022-11-12T03:57:01.157Z,81.83
2022-11-12T04:00:30.129Z,82.59
2022-11-12T04:03:54.095Z,82.96
2022-11-12T04:07:34.214Z,83.49
2022-11-12T04:11:00.277Z,83.70
2022-11-12T04:14:22.078Z,83.57
2022-11-12T04:18:04.813Z,83.78
2022-11-12T04:21:49.095Z,84.13
2022-11-12T04:25:29.179Z,84.37
2022-11-12T04:29:08.984Z,83.63
2022-11-12T04:32:38.186Z,83.57
2022-11-12T04:35:59.807Z,83.65
2022-11-12T04:39:23.675Z,82.92
2022-11-12T04:43:06.499Z,82.68
2022-11-12T04:46:28.014Z,83.09
2022-11-12T04:49:49.548Z,83.51
2022-11-12T04:53:11.385Z,84.14
2022-11-12T04:56:35.691Z,84.08
2022-11-12T04:59:57.221Z,83.88
2022-11-12T05:03:18.947Z,82.82
2022-11-12T05:06:52.855Z,81.81
2022-11-12T05:10:16.812Z,82.52
2022-11-12T05:13:38.305Z,82.47
2022-11-12T05:16:59.876Z,83.08
2022-11-12T05:20:21.380Z,83.32
2022-11-12T05:23:45.163Z,83.18
2022-11-12T05:27:15.450Z,83.02
2022-11-12T05:30:40.000Z,83.18
2022-11-12T05:34:04.306Z,83.29
2022-11-12T05:37:28.006Z,82.29
2022-11-12T05:40:52.272Z,82.40
2022-11-12T05:44:18.924Z,83.11
2022-11-12T05:47:40.415Z,83.94
2022-11-12T05:51:17.238Z,84.69
2022-11-12T05:54:41.774Z,84.94
2022-11-12T05:58:07.023Z,84.77
2022-11-12T06:01:28.595Z,84.93
2022-11-12T06:04:52.595Z,85.07
2022-11-12T06:08:16.333Z,84.67
2022-11-12T06:11:38.437Z,85.27
2022-11-12T06:14:59.928Z,85.36
2022-11-12T06:18:25.006Z,85.32
2022-11-12T06:21:46.850Z,85.29
2022-11-12T06:25:08.702Z,85.40
2022-11-12T06:28:32.549Z,85.77
2022-11-12T06:31:56.336Z,85.50
2022-11-12T06:35:21.613Z,85.46
2022-11-12T06:38:44.185Z,84.47
2022-11-12T06:42:05.809Z,84.78
2022-11-12T06:45:27.392Z,84.69
2022-11-12T06:48:52.355Z,84.55
2022-11-12T06:52:16.898Z,84.28
2022-11-12T06:55:40.965Z,84.68
2022-11-12T06:59:04.739Z,84.51
2022-11-12T07:02:29.178Z,84.65
2022-11-12T07:05:50.743Z,84.53
2022-11-12T07:09:16.774Z,84.20
2022-11-12T07:12:38.335Z,84.21
2022-11-12T07:16:01.589Z,84.14
2022-11-12T07:19:23.111Z,84.18
2022-11-12T07:22:49.474Z,84.19
2022-11-12T07:26:13.421Z,84.17
2022-11-12T07:29:47.668Z,84.24
2022-11-12T07:33:12.351Z,83.61
2022-11-12T07:36:33.883Z,83.45
2022-11-12T07:39:55.450Z,82.93
2022-11-12T07:43:24.003Z,81.91
2022-11-12T07:46:45.518Z,81.61
2022-11-12T07:50:07.279Z,81.70
2022-11-12T07:53:31.590Z,81.64
2022-11-12T07:56:55.310Z,81.07
2022-11-12T08:00:20.048Z,81.77
2022-11-12T08:03:41.550Z,81.86
2022-11-12T08:07:03.258Z,80.61
2022-11-12T08:10:24.842Z,81.47
2022-11-12T08:13:46.553Z,81.44
2022-11-12T08:17:10.400Z,81.01
2022-11-12T08:20:32.000Z,80.32
2022-11-12T08:23:53.717Z,79.81
2022-11-12T08:27:17.942Z,80.16
2022-11-12T08:30:39.533Z,79.49
2022-11-12T08:34:12.322Z,79.34
2022-11-12T08:37:36.318Z,79.60
2022-11-12T08:41:06.724Z,79.26
2022-11-12T08:44:30.495Z,79.15
2022-11-12T08:47:52.596Z,79.88
2022-11-12T08:51:14.163Z,87.60
2022-11-12T08:54:35.742Z,89.79
2022-11-12T08:58:01.952Z,85.90
2022-11-12T09:01:23.647Z,81.95
2022-11-12T09:04:45.278Z,74.92
2022-11-12T09:08:14.009Z,75.79
2022-11-12T09:11:37.879Z,76.91
2022-11-12T09:15:35.883Z,77.56
2022-11-12T09:18:45.649Z,77.58
2022-11-12T09:22:09.465Z,77.34
2022-11-12T09:25:31.263Z,78.34
2022-11-12T09:28:54.896Z,78.47
2022-11-12T09:32:18.751Z,78.80
2022-11-12T09:35:45.633Z,78.30
2022-11-12T09:39:09.503Z,79.41
2022-11-12T09:42:31.272Z,80.03
2022-11-12T09:46:13.871Z,78.57
2022-11-12T09:49:50.372Z,77.08
2022-11-12T09:53:44.149Z,76.21
2022-11-12T09:57:12.775Z,74.17
2022-11-12T10:00:34.932Z,74.72
2022-11-12T10:04:12.712Z,69.85
2022-11-12T10:07:34.172Z,67.34
2022-11-12T10:11:01.554Z,65.65
2022-11-12T10:14:54.093Z,63.98
2022-11-12T10:18:30.088Z,59.60
2022-11-12T10:22:15.507Z,56.56
2022-11-12T10:25:37.806Z,55.83
2022-11-12T10:29:11.348Z,60.49
2022-11-12T10:32:39.671Z,62.07
2022-11-12T10:36:11.288Z,56.33
2022-11-12T10:39:32.786Z,57.44
2022-11-12T10:43:21.526Z,59.20
2022-11-12T10:46:47.896Z,61.12
2022-11-12T10:50:11.773Z,57.84
2022-11-12T10:53:38.845Z,57.02
2022-11-12T10:57:21.199Z,55.67
2022-11-12T11:01:02.360Z,54.40
2022-11-12T11:04:36.890Z,53.48
2022-11-12T11:07:58.746Z,55.13
2022-11-12T11:11:30.238Z,53.36
2022-11-12T11:15:09.510Z,53.42
2022-11-12T11:18:34.810Z,51.65
2022-11-12T11:22:11.419Z,52.04
2022-11-12T11:25:34.801Z,49.24
2022-11-12T11:29:19.334Z,48.61
2022-11-12T11:33:20.083Z,47.15
2022-11-12T11:37:22.306Z,45.25
2022-11-12T11:40:48.626Z,43.69
2022-11-12T11:44:28.351Z,43.14
2022-11-12T11:48:01.661Z,43.07
2022-11-12T11:51:38.637Z,45.88
2022-11-12T11:55:19.849Z,48.07
2022-11-12T11:59:02.920Z,51.67
2022-11-12T12:02:39.405Z,54.98
2022-11-12T12:06:25.131Z,57.15
2022-11-12T12:10:11.803Z,57.60
2022-11-12T12:14:01.269Z,59.50
2022-11-12T12:17:35.068Z,60.07
2022-11-12T12:21:11.967Z,61.55
2022-11-12T12:25:01.454Z,60.44
2022-11-12T12:28:41.803Z,61.09
2022-11-12T12:32:15.021Z,61.49
2022-11-12T12:35:54.666Z,61.47
2022-11-12T12:39:25.159Z,60.76
2022-11-12T12:42:54.660Z,60.71
2022-11-12T12:46:20.151Z,60.21
2022-11-12T12:49:42.990Z,60.15
2022-11-12T12:53:22.751Z,60.32
2022-11-12T12:56:50.711Z,60.40
2022-11-12T13:00:31.441Z,61.13
2022-11-12T13:04:00.174Z,61.70
2022-11-12T13:07:42.672Z,60.30
2022-11-12T13:11:06.768Z,61.67
2022-11-12T13:14:31.279Z,62.08
2022-11-12T13:17:55.171Z,61.78
2022-11-12T13:21:20.405Z,62.62
2022-11-12T13:25:20.430Z,62.91
2022-11-12T13:29:20.474Z,61.62
2022-11-12T13:33:06.417Z,63.60
2022-11-12T13:36:32.180Z,62.93
2022-11-12T13:39:56.096Z,64.10
2022-11-12T13:43:38.886Z,64.52
2022-11-12T13:47:00.602Z,64.27
2022-11-12T13:50:23.866Z,64.69
2022-11-12T13:53:48.176Z,65.01
2022-11-12T13:57:31.271Z,65.17
2022-11-12T14:01:00.660Z,65.27
2022-11-12T14:04:24.358Z,65.31
2022-11-12T14:08:33.990Z,66.34
2022-11-12T14:12:10.506Z,67.05
2022-11-12T14:16:06.177Z,66.89
2022-11-12T14:19:49.416Z,67.25
2022-11-12T14:23:25.138Z,66.49
2022-11-12T14:26:47.054Z,66.98
2022-11-12T14:30:08.643Z,67.26
2022-11-12T14:33:31.994Z,67.85
2022-11-12T14:36:56.029Z,68.21
2022-11-12T14:40:18.975Z,68.84
2022-11-12T14:43:54.988Z,68.98
2022-11-12T14:47:24.301Z,69.30
2022-11-12T14:50:54.250Z,69.86
2022-11-12T14:54:32.057Z,70.51
2022-11-12T14:57:58.647Z,70.50
2022-11-12T15:05:15.818Z,70.86
2022-11-12T15:08:40.039Z,71.55
2022-11-12T15:12:03.359Z,71.77
2022-11-12T15:15:25.058Z,71.95
2022-11-12T15:19:19.559Z,72.24
2022-11-12T15:22:41.191Z,72.87
2022-11-12T15:26:05.348Z,72.87
2022-11-12T15:29:33.883Z,73.22
2022-11-12T15:33:16.261Z,73.72
2022-11-12T15:36:41.433Z,73.89
2022-11-12T15:40:11.491Z,74.22
2022-11-12T15:43:42.393Z,74.51
2022-11-12T15:47:11.177Z,74.45
2022-11-12T15:50:36.173Z,74.97
2022-11-12T15:53:57.711Z,74.49
2022-11-12T15:57:25.510Z,74.68
2022-11-12T16:00:47.304Z,75.03
2022-11-12T16:04:11.678Z,75.24
2022-11-12T16:07:38.059Z,75.53
2022-11-12T16:11:00.163Z,75.36
2022-11-12T16:14:24.836Z,75.81
2022-11-12T16:17:50.091Z,76.06
2022-11-12T16:21:19.494Z,76.13
2022-11-12T16:24:42.791Z,76.44
2022-11-12T16:28:11.627Z,76.13
2022-11-12T16:31:33.186Z,76.11
2022-11-12T16:34:59.902Z,76.25
2022-11-12T16:38:23.311Z,76.02
2022-11-12T16:41:44.897Z,75.63
2022-11-12T16:45:09.008Z,76.22
2022-11-12T16:48:33.079Z,76.35
2022-11-12T16:51:54.561Z,76.35
2022-11-12T16:55:16.613Z,76.34
2022-11-12T16:58:40.388Z,76.53
2022-11-12T17:02:04.530Z,76.77
2022-11-12T17:05:28.318Z,77.11
2022-11-12T17:08:54.182Z,77.48
2022-11-12T17:12:15.665Z,77.65
2022-11-12T17:15:37.228Z,77.14
2022-11-12T17:19:01.305Z,77.14
2022-11-12T17:22:23.351Z,77.36
2022-11-12T17:25:44.948Z,77.60
2022-11-12T17:29:08.260Z,77.12
2022-11-12T17:32:32.486Z,77.08
2022-11-12T17:35:54.118Z,77.67
2022-11-12T17:39:16.076Z,78.68
2022-11-12T17:42:37.591Z,78.78
2022-11-12T17:45:59.291Z,79.18
2022-11-12T17:49:23.037Z,78.89
2022-11-12T17:52:44.526Z,78.94
2022-11-12T17:56:07.797Z,78.88
2022-11-12T17:59:29.277Z,79.10
2022-11-12T18:02:51.949Z,79.18
2022-11-12T18:06:16.487Z,79.05
2022-11-12T18:09:38.059Z,79.47
2022-11-12T18:12:59.597Z,79.52
2022-11-12T18:16:28.846Z,79.71
2022-11-12T18:19:50.353Z,79.53
2022-11-12T18:23:12.347Z,79.00
2022-11-12T18:26:33.870Z,79.48
2022-11-12T18:29:57.654Z,79.86
2022-11-12T18:33:21.494Z,80.32
2022-11-12T18:36:43.169Z,79.27
2022-11-12T18:40:07.448Z,78.83
2022-11-12T18:43:29.460Z,79.25
2022-11-12T18:46:53.481Z,79.91
2022-11-12T18:50:15.023Z,79.78
2022-11-12T18:53:37.895Z,80.14
2022-11-12T18:56:59.487Z,80.48
2022-11-12T19:00:21.357Z,80.75
2022-11-12T19:03:43.686Z,80.69
2022-11-12T19:07:07.557Z,79.87
2022-11-12T19:10:29.124Z,79.34
2022-11-12T19:13:52.363Z,79.95
2022-11-12T19:17:16.168Z,79.82
2022-11-12T19:20:37.705Z,80.45
2022-11-12T19:24:00.461Z,79.60
2022-11-12T19:27:24.552Z,79.15
2022-11-12T19:30:46.119Z,78.72
2022-11-12T19:34:07.687Z,79.37
2022-11-12T19:37:33.928Z,80.09
2022-11-12T19:40:56.041Z,79.54
2022-11-12T19:44:19.948Z,78.79
2022-11-12T19:47:43.773Z,79.09
2022-11-12T19:51:08.397Z,78.91
2022-11-12T19:54:29.947Z,78.73
2022-11-12T19:57:52.050Z,78.71
2022-11-12T20:01:18.760Z,78.08
2022-11-12T20:04:45.192Z,79.26
2022-11-12T20:08:06.728Z,79.36
2022-11-12T20:11:28.263Z,79.42
2022-11-12T20:14:49.791Z,79.65
2022-11-12T20:18:11.330Z,79.69
2022-11-12T20:21:32.804Z,80.25
2022-11-12T20:24:54.343Z,80.22
2022-11-12T20:28:15.928Z,81.12
2022-11-12T20:31:37.983Z,80.74
2022-11-12T20:34:59.473Z,81.32
2022-11-12T20:38:21.201Z,81.43
2022-11-12T20:41:45.692Z,81.81
2022-11-12T20:45:07.751Z,82.04
2022-11-12T20:48:29.540Z,82.32
2022-11-12T20:51:53.317Z,82.26
2022-11-12T20:55:15.436Z,81.85
2022-11-12T20:58:39.229Z,82.27
2022-11-12T21:02:05.826Z,82.63
2022-11-12T21:05:30.643Z,82.76
2022-11-12T21:09:05.500Z,82.88
2022-11-12T21:12:29.516Z,82.59
2022-11-12T21:15:54.238Z,82.15
2022-11-12T21:19:15.876Z,80.79
2022-11-12T21:22:42.907Z,81.41
2022-11-12T21:26:14.840Z,81.08
2022-11-12T21:29:36.491Z,80.44
2022-11-12T21:32:59.551Z,81.10
2022-11-12T21:36:26.277Z,81.07
2022-11-12T21:39:49.384Z,81.44
2022-11-12T21:43:10.975Z,81.21
2022-11-12T21:46:37.549Z,81.58
2022-11-12T21:49:59.033Z,80.71
2022-11-12T21:53:20.722Z,81.28
2022-11-12T21:56:42.310Z,82.08
2022-11-12T22:00:39.031Z,82.13
2022-11-12T22:03:46.724Z,82.19
2022-11-12T22:07:08.504Z,82.38
2022-11-12T22:10:30.186Z,82.36
2022-11-12T22:13:51.778Z,81.90
2022-11-12T22:17:13.287Z,80.58
2022-11-12T22:20:37.158Z,79.22
2022-11-12T22:23:59.228Z,79.69
2022-11-12T22:27:23.736Z,79.91
2022-11-12T22:30:49.954Z,80.47
2022-11-12T22:34:11.724Z,80.41
2022-11-12T22:37:33.441Z,79.53
2022-11-12T22:41:01.337Z,78.96
2022-11-12T22:44:22.848Z,79.23
2022-11-12T22:47:46.600Z,80.20
2022-11-12T22:51:13.430Z,79.91
2022-11-12T22:54:37.347Z,80.91
2022-11-12T22:58:02.157Z,80.25
2022-11-12T23:01:26.987Z,79.86
2022-11-12T23:04:48.661Z,79.86
2022-11-12T23:08:10.191Z,79.38
2022-11-12T23:11:32.024Z,78.26
2022-11-12T23:14:53.543Z,78.81
2022-11-12T23:18:15.114Z,80.20
2022-11-12T23:21:36.751Z,78.21
2022-11-12T23:24:58.308Z,78.92
2022-11-12T23:28:19.836Z,79.53
2022-11-12T23:31:43.643Z,77.78
2022-11-12T23:35:07.891Z,77.99
2022-11-12T23:38:29.799Z,78.68
2022-11-12T23:41:51.613Z,79.95
2022-11-12T23:45:15.208Z,79.92
2022-11-12T23:48:37.203Z,78.83
2022-11-12T23:51:58.735Z,77.81
2022-11-12T23:55:20.263Z,78.80
2022-11-12T23:58:42.575Z,80.50
